createdAt,value
2023-03-23T16:00:21.373Z,32.80
2023-03-23T16:02:58.770Z,32.71
2023-03-23T16:05:30.110Z,32.73
2023-03-23T16:08:00.850Z,32.77
2023-03-23T16:10:31.759Z,32.74
2023-03-23T16:13:02.987Z,32.72
2023-03-23T16:15:33.744Z,32.70
2023-03-23T16:18:07.159Z,32.68
2023-03-23T16:20:38.462Z,32.71
2023-03-23T16:23:12.060Z,32.66
2023-03-23T16:25:42.888Z,32.63
2023-03-23T16:28:15.018Z,32.64
2023-03-23T16:30:46.374Z,32.59
2023-03-23T16:33:17.345Z,32.60
2023-03-23T16:35:50.393Z,32.48
2023-03-23T16:38:21.306Z,32.61
2023-03-23T16:40:54.125Z,32.54
2023-03-23T16:43:25.065Z,32.53
2023-03-23T16:45:58.784Z,32.53
2023-03-23T16:48:30.067Z,32.51
2023-03-23T16:51:00.987Z,32.53
2023-03-23T16:53:32.018Z,32.50
2023-03-23T16:56:03.474Z,32.48
2023-03-23T16:58:34.302Z,32.46
2023-03-23T17:01:06.903Z,32.45
2023-03-23T17:03:37.478Z,32.46
2023-03-23T17:06:08.562Z,32.44
2023-03-23T17:08:39.332Z,32.45
2023-03-23T17:11:12.374Z,32.43
2023-03-23T17:13:43.096Z,32.39
2023-03-23T17:16:24.369Z,32.40
2023-03-23T17:18:55.245Z,32.37
2023-03-23T17:21:26.806Z,32.34
2023-03-23T17:23:58.224Z,32.34
2023-03-23T17:26:28.898Z,32.32
2023-03-23T17:28:59.549Z,32.30
2023-03-23T17:31:30.674Z,32.30
2023-03-23T17:34:01.812Z,32.27
2023-03-23T17:36:32.687Z,32.27
2023-03-23T17:39:04.196Z,32.23
2023-03-23T17:41:35.929Z,32.23
2023-03-23T17:44:10.069Z,32.20
2023-03-23T17:46:41.856Z,32.17
2023-03-23T17:49:12.570Z,32.18
2023-03-23T17:51:44.650Z,32.14
2023-03-23T17:54:17.148Z,32.15
2023-03-23T17:56:50.941Z,32.13
2023-03-23T17:59:22.822Z,32.12
2023-03-23T18:01:54.721Z,32.10
2023-03-23T18:04:28.105Z,32.08
2023-03-23T18:06:59.817Z,32.06
2023-03-23T18:09:31.672Z,32.02
2023-03-23T18:12:03.148Z,32.00
2023-03-23T18:14:33.979Z,31.99
2023-03-23T18:17:04.708Z,31.98
2023-03-23T18:19:35.343Z,31.94
2023-03-23T18:22:06.372Z,31.92
2023-03-23T18:24:37.255Z,31.90
2023-03-23T18:27:08.278Z,31.91
2023-03-23T18:29:38.939Z,31.87
2023-03-23T18:32:10.785Z,31.86
2023-03-23T18:34:51.019Z,31.87
2023-03-23T18:37:22.301Z,31.83
2023-03-23T18:39:54.633Z,31.84
2023-03-23T18:42:25.045Z,31.79
2023-03-23T18:44:56.556Z,31.80
2023-03-23T18:47:28.223Z,31.76
2023-03-23T18:50:00.512Z,31.78
2023-03-23T18:52:32.422Z,31.77
2023-03-23T18:55:03.775Z,31.75
2023-03-23T18:57:34.351Z,31.75
2023-03-23T19:00:05.742Z,31.72
2023-03-23T19:02:37.098Z,31.71
2023-03-23T19:05:09.833Z,31.67
2023-03-23T19:07:40.877Z,31.64
2023-03-23T19:10:11.925Z,31.63
2023-03-23T19:12:42.844Z,31.63
2023-03-23T19:15:22.478Z,31.62
2023-03-23T19:17:56.929Z,31.60
2023-03-23T19:20:57.196Z,31.60
2023-03-23T19:23:19.941Z,31.56
2023-03-23T19:25:51.416Z,31.57
2023-03-23T19:29:05.462Z,31.57
2023-03-23T19:31:16.508Z,31.55
2023-03-23T19:33:47.539Z,31.51
2023-03-23T19:36:18.830Z,31.51
2023-03-23T19:38:49.692Z,31.48
2023-03-23T19:41:20.723Z,31.47
2023-03-23T19:43:51.818Z,31.42
2023-03-23T19:46:22.540Z,31.45
2023-03-23T19:48:53.475Z,31.46
2023-03-23T19:51:26.835Z,31.41
2023-03-23T19:53:58.960Z,31.40
2023-03-23T19:56:33.629Z,31.38
2023-03-23T19:59:05.204Z,31.41
2023-03-23T20:01:36.036Z,31.41
2023-03-23T20:04:07.323Z,31.39
2023-03-23T20:06:38.490Z,31.40
2023-03-23T20:09:10.277Z,31.37
2023-03-23T20:11:41.739Z,31.37
2023-03-23T20:14:12.607Z,31.38
2023-03-23T20:16:43.812Z,31.35
2023-03-23T20:19:14.364Z,31.34
2023-03-23T20:21:45.883Z,31.34
2023-03-23T20:24:17.468Z,31.33
2023-03-23T20:26:48.462Z,31.33
2023-03-23T20:29:19.332Z,31.30
2023-03-23T20:31:53.862Z,31.29
2023-03-23T20:34:31.986Z,31.30
2023-03-23T20:37:03.703Z,31.30
2023-03-23T20:39:35.340Z,31.29
2023-03-23T20:42:07.466Z,31.27
2023-03-23T20:44:40.290Z,31.28
2023-03-23T20:47:13.173Z,31.24
2023-03-23T20:49:44.025Z,31.25
2023-03-23T20:52:28.061Z,31.23
2023-03-23T20:54:59.084Z,31.20
2023-03-23T20:57:29.736Z,31.23
2023-03-23T21:00:00.413Z,31.19
2023-03-23T21:02:31.680Z,31.19
2023-03-23T21:05:05.234Z,31.18
2023-03-23T21:07:37.048Z,31.19
2023-03-23T21:10:08.326Z,31.16
2023-03-23T21:12:41.678Z,31.18
2023-03-23T21:15:12.553Z,31.15
2023-03-23T21:17:43.725Z,31.15
2023-03-23T21:20:15.395Z,31.13
2023-03-23T21:22:46.268Z,31.11
2023-03-23T21:25:17.183Z,31.10
2023-03-23T21:27:48.522Z,31.07
2023-03-23T21:30:22.824Z,31.06
2023-03-23T21:32:53.471Z,31.03
2023-03-23T21:35:25.129Z,31.02
2023-03-23T21:37:55.746Z,31.01
2023-03-23T21:40:28.215Z,30.97
2023-03-23T21:42:59.462Z,30.97
2023-03-23T21:45:31.372Z,30.97
2023-03-23T21:48:05.631Z,30.96
2023-03-23T21:50:40.294Z,30.94
2023-03-23T21:53:13.689Z,30.95
2023-03-23T21:55:45.873Z,30.93
2023-03-23T21:58:16.484Z,30.91
2023-03-23T22:00:50.877Z,30.91
2023-03-23T22:03:25.963Z,30.90
2023-03-23T22:05:59.096Z,30.88
2023-03-23T22:08:33.973Z,30.88
2023-03-23T22:11:07.799Z,30.84
2023-03-23T22:13:40.329Z,30.82
2023-03-23T22:16:18.859Z,30.83
2023-03-23T22:18:52.215Z,30.82
2023-03-23T22:21:24.070Z,30.79
2023-03-23T22:23:56.893Z,30.81
2023-03-23T22:26:28.789Z,30.78
2023-03-23T22:29:00.612Z,30.76
2023-03-23T22:31:35.134Z,30.74
2023-03-23T22:34:07.371Z,30.74
2023-03-23T22:36:40.017Z,30.72
2023-03-23T22:39:10.973Z,30.72
2023-03-23T22:41:43.329Z,30.68
2023-03-23T22:44:19.116Z,30.70
2023-03-23T22:46:50.923Z,30.67
2023-03-23T22:49:21.914Z,30.69
2023-03-23T22:51:52.585Z,30.72
2023-03-23T22:54:24.477Z,30.70
2023-03-23T22:56:55.454Z,30.71
2023-03-23T22:59:26.077Z,30.71
2023-03-23T23:01:57.102Z,30.72
2023-03-23T23:04:28.322Z,30.76
2023-03-23T23:07:11.950Z,30.75
2023-03-23T23:09:44.749Z,30.77
2023-03-23T23:12:16.669Z,30.79
2023-03-23T23:14:47.821Z,30.78
2023-03-23T23:17:18.763Z,30.76
2023-03-23T23:19:49.437Z,30.75
2023-03-23T23:22:20.966Z,30.76
2023-03-23T23:24:51.847Z,30.79
2023-03-23T23:27:22.980Z,30.84
2023-03-23T23:29:54.040Z,30.85
2023-03-23T23:32:25.110Z,30.81
2023-03-23T23:34:56.136Z,30.82
2023-03-23T23:37:27.243Z,30.85
2023-03-23T23:39:57.954Z,30.90
2023-03-23T23:42:32.102Z,30.90
2023-03-23T23:45:04.113Z,30.92
2023-03-23T23:47:34.875Z,30.93
2023-03-23T23:50:08.335Z,30.95
2023-03-23T23:52:41.186Z,30.98
2023-03-23T23:55:16.386Z,31.05
2023-03-23T23:57:48.795Z,31.02
